Aviation Digital Data Service (ADDS)

Output produced by METARs form (0440 UTC 25 April 2017)
found at http://www.aviationweather.gov/adds/metars/
 
KIPT 250354Z AUTO 00000KT 10SM OVC060 12/10 A3006 RMK AO2 RAE12 SLP178 P0000 T01220100
KIPT 250254Z AUTO 00000KT 10SM -RA SCT070 OVC095 12/10 A3007 RMK AO2 RAE11B40 SLP183 P0000 60002 T01220100 50005
KIPT 250154Z 09004KT 10SM -RA OVC095 13/09 A3007 RMK AO2 SLP185 P0002 T01330089
KIPT 250054Z 11008KT 10SM -RA OVC095 16/05 A3007 RMK AO2 RAB41 SLP183 P0000 T01560050
KIPT 242354Z 10003KT 10SM BKN090 OVC110 17/04 A3005 RMK AO2 RAB24E37 SLP178 P0000 60000 T01670044 10206 20167 50000
KIPT 242254Z 14003KT 10SM OVC100 17/04 A3005 RMK AO2 RAB39E50 SLP177 P0000 T01720039
KIPT 242154Z 16005KT 10SM OVC090 18/02 A3006 RMK AO2 RAB36E49 SLP179 P0000 T01780017
KIPT 242054Z 15010KT 10SM OVC110 19/01 A3005 RMK AO2 SLP178 T01890006 56013
KIPT 241954Z 11006KT 10SM FEW110 19/01 A3006 RMK AO2 SLP180 T01940011
KIPT 241854Z 11010KT 10SM CLR 21/01 A3008 RMK AO2 SLP186 T02060011
KIPT 241754Z 12004KT 10SM CLR 19/05 A3009 RMK AO2 SLP190 T01940050 10200 20067 58009
KIPT 241654Z 00000KT 10SM CLR 18/05 A3010 RMK AO2 SLP193 T01830050
KIPT 241554Z 00000KT 10SM CLR 15/06 A3012 RMK AO2 SLP199 T01500056
KIPT 241454Z 00000KT 10SM CLR 13/05 A3012 RMK AO2 SLP200 T01280050 58003
KIPT 241354Z 00000KT 10SM CLR 11/05 A3013 RMK AO2 SLP203 T01060050
KIPT 241254Z 00000KT 10SM CLR 08/04 A3014 RMK AO2 SLP208 T00830044
KIPT 241154Z 00000KT 10SM CLR 07/03 A3013 RMK AO2 SLP203 T00670033 10078 20039 51014
KIPT 241054Z 34003KT 10SM CLR 05/03 A3012 RMK AO2 SLP202 T00500028
KIPT 240954Z AUTO 31003KT 10SM CLR 04/03 A3009 RMK AO2 SLP192 T00440028
KIPT 240854Z AUTO 33003KT 10SM CLR 05/03 A3008 RMK AO2 SLP188 T00500028 50002
KIPT 240754Z AUTO 00000KT 10SM CLR 06/03 A3009 RMK AO2 SLP190 T00560028
KIPT 240654Z AUTO 33003KT 10SM CLR 07/03 A3008 RMK AO2 SLP186 T00670033
KIPT 240554Z AUTO 00000KT 10SM CLR 08/03 A3008 RMK AO2 SLP186 T00780033 10178 20067 50003
KIPT 240454Z AUTO 00000KT 10SM CLR 09/04 A3008 RMK AO2 SLP187 T00940039 402060011
KIPT 240354Z AUTO 00000KT 10SM CLR 09/04 A3008 RMK AO2 SLP186 T00940039
KIPT 240254Z AUTO 00000KT 10SM CLR 11/03 A3007 RMK AO2 SLP183 T01060033 53014
KIPT 240154Z 36005KT 10SM CLR 13/03 A3005 RMK AO2 SLP178 T01280033
KIPT 240054Z 02005KT 10SM CLR 16/01 A3004 RMK AO2 SLP173 T01610006
KIPT 232354Z 00000KT 10SM CLR 17/M01 A3003 RMK AO2 SLP169 T01721006 10206 20172 51002
KIPT 232254Z 19005KT 10SM CLR 19/M02 A3003 RMK AO2 SLP169 T01941022
KIPT 232154Z VRB04KT 10SM CLR 19/00 A3002 RMK AO2 SLP167 T01940000
KIPT 232054Z 19005KT 10SM CLR 21/M03 A3002 RMK AO2 SLP167 T02061028 56017
KIPT 231954Z 20004KT 10SM CLR 19/02 A3003 RMK AO2 SLP169 T01940017
KIPT 231854Z 00000KT 10SM CLR 19/02 A3005 RMK AO2 SLP175 T01940022
KIPT 231754Z VRB03KT 10SM CLR 17/03 A3007 RMK AO2 SLP184 T01720028 10183 20044 58024
KIPT 231654Z VRB04KT 10SM CLR 17/03 A3010 RMK AO2 SLP192 T01670028